Esterhazy, Canada
Current Conditions -  °F | °C
As of 3:43 PM on Wednesday 22 Oct 2014 (Local Time) from CYQV Reporting Station
Broken Clouds Broken Clouds  
Wind Chill: 55°   Ceiling: 3900
Heat Index: 55°   Visibility: 9mi
Dew Point: 46°   Wind: 13mph
Humidity: 72%   Direction: 290°WNW
Pressure: 29.66"   Gusts: 20mph
Location:  50.65°N, 102.08°W
Report Text: CYQV 222143Z AUTO 29011G17KT 9SM SCT022 BKN039 BKN085 13/08 A2966 RMK SLP055 DENSITY ALT 2000FT
Loading
Personal Weather Stations






























Interactive Weather Map
Tropical Storm Tracking
New forecast layout! Learn more

10-Day Weather Forecast

Advertisements
Track Severe Weather on mobile